Time;durP1;ratioP1;P1;durP2;ratioP2;P2;SDS_P1;SDS_P2;PMS_P1;PMS_P2;Temp;Humidity;BMP_temperature;BMP_pressure;BME280_temperature;BME280_humidity;BME280_pressure;Samples;Min_cycle;Max_cycle;Signal;HPM_P1;HPM_P2
2021/05/10 00:00:51;;;;;;;2.22;0.30;;;;;;;19.43;53.13;99821.09;4881740;28;101784;-75
2021/05/10 00:03:18;;;;;;;1.50;0.30;;;;;;;19.36;53.32;99826.34;4882340;28;110975;-65
2021/05/10 00:05:44;;;;;;;1.15;0.50;;;;;;;19.36;53.21;99815.41;4880620;28;97968;-64
2021/05/10 00:08:11;;;;;;;1.00;0.40;;;;;;;19.35;53.33;99813.81;4863954;28;99152;-75
2021/05/10 00:10:38;;;;;;;1.20;0.40;;;;;;;19.31;52.99;99821.91;4880446;28;98636;-64
2021/05/10 00:13:06;;;;;;;1.25;0.30;;;;;;;19.33;52.68;99821.53;4879892;28;98783;-64
2021/05/10 00:15:32;;;;;;;0.80;0.35;;;;;;;19.26;52.67;99822.13;4881909;28;97877;-74
2021/05/10 00:18:04;;;;;;;1.55;0.30;;;;;;;19.29;52.94;99815.97;4881847;28;114003;-64
2021/05/10 00:20:36;;;;;;;3.15;0.50;;;;;;;19.23;53.36;99820.06;4880706;28;98956;-65
2021/05/10 00:23:02;;;;;;;1.00;0.40;;;;;;;19.22;53.54;99810.28;4896691;28;98053;-75
2021/05/10 00:25:28;;;;;;;1.55;0.30;;;;;;;19.20;53.69;99809.81;4882446;28;98111;-71
2021/05/10 00:27:54;;;;;;;2.42;0.60;;;;;;;19.18;54.28;99811.28;4880132;28;125899;-75
2021/05/10 00:30:21;;;;;;;1.38;0.40;;;;;;;19.15;54.31;99820.19;4881422;28;126677;-75
2021/05/10 00:32:47;;;;;;;1.23;0.30;;;;;;;19.15;54.54;99820.19;4881746;28;118415;-75
2021/05/10 00:35:14;;;;;;;1.20;0.40;;;;;;;19.09;54.60;99814.13;4882959;28;98319;-75
2021/05/10 00:37:40;;;;;;;2.67;0.50;;;;;;;19.08;55.13;99815.28;4896022;28;97789;-64
2021/05/10 00:40:08;;;;;;;1.98;0.50;;;;;;;19.07;55.15;99817.22;4896395;28;110222;-75
2021/05/10 00:42:34;;;;;;;1.70;0.40;;;;;;;19.02;55.40;99814.72;4881189;28;116725;-64
2021/05/10 00:45:00;;;;;;;1.50;0.30;;;;;;;19.02;55.64;99822.91;4881873;28;121770;-64
2021/05/10 00:47:26;;;;;;;0.95;0.35;;;;;;;18.98;55.87;99815.72;4877837;28;114761;-75
2021/05/10 00:49:52;;;;;;;1.10;0.40;;;;;;;18.95;55.97;99814.47;4861408;28;128779;-64
2021/05/10 00:52:18;;;;;;;1.15;0.38;;;;;;;18.86;56.02;99806.38;4880790;28;127495;-75
2021/05/10 00:54:44;;;;;;;2.33;0.40;;;;;;;18.89;56.01;99818.53;4881196;28;121494;-74
2021/05/10 00:57:10;;;;;;;0.90;0.40;;;;;;;18.89;56.03;99813.09;4879294;28;122109;-75
2021/05/10 00:59:37;;;;;;;1.25;0.30;;;;;;;18.83;55.76;99817.97;4864443;28;98461;-75
2021/05/10 01:02:03;;;;;;;2.00;0.50;;;;;;;18.83;55.86;99817.19;4880012;28;100166;-75
2021/05/10 01:04:29;;;;;;;0.75;0.40;;;;;;;18.87;55.48;99812.63;4896776;28;106555;-64
2021/05/10 01:06:55;;;;;;;0.93;0.40;;;;;;;18.84;56.04;99813.31;4877207;28;127869;-65
2021/05/10 01:09:21;;;;;;;1.23;0.35;;;;;;;18.82;55.65;99807.38;4876538;28;108090;-75
2021/05/10 01:11:47;;;;;;;0.98;0.40;;;;;;;18.81;55.83;99805.78;4880288;28;127641;-65
2021/05/10 01:14:13;;;;;;;1.23;0.32;;;;;;;18.80;55.92;99805.00;4863957;28;97875;-65
2021/05/10 01:16:39;;;;;;;1.17;0.30;;;;;;;18.75;56.06;99807.16;4879498;28;127915;-75
2021/05/10 01:19:05;;;;;;;1.13;0.30;;;;;;;18.77;56.29;99813.06;4864204;28;98427;-65
2021/05/10 01:21:31;;;;;;;1.73;0.45;;;;;;;18.77;56.32;99810.34;4865393;28;127138;-75
2021/05/10 01:23:58;;;;;;;1.40;0.32;;;;;;;18.72;56.85;99816.81;4866049;28;123217;-65
2021/05/10 01:26:25;;;;;;;1.00;0.40;;;;;;;18.69;56.73;99803.78;4883209;28;98770;-76
2021/05/10 01:28:51;;;;;;;0.88;0.40;;;;;;;18.69;56.95;99803.78;4882210;28;128376;-65
2021/05/10 01:31:17;;;;;;;1.10;0.38;;;;;;;18.67;56.91;99797.91;4867061;28;102447;-65
2021/05/10 01:33:43;;;;;;;1.15;0.40;;;;;;;18.62;57.29;99798.88;4882486;28;98241;-76
2021/05/10 01:36:09;;;;;;;1.92;0.30;;;;;;;18.58;57.87;99795.22;4882401;28;118120;-65
2021/05/10 01:38:35;;;;;;;0.98;0.40;;;;;;;18.57;57.75;99784.66;4898478;28;128194;-65
2021/05/10 01:41:01;;;;;;;2.05;0.43;;;;;;;18.57;57.61;99782.72;4883213;28;126732;-75
2021/05/10 01:43:27;;;;;;;1.13;0.47;;;;;;;18.56;57.55;99785.81;4883093;28;121951;-75
2021/05/10 01:45:53;;;;;;;1.73;0.40;;;;;;;18.55;57.76;99781.47;4882337;28;98740;-75
2021/05/10 01:48:19;;;;;;;1.08;0.40;;;;;;;18.50;57.86;99779.75;4914049;28;129307;-75
2021/05/10 01:50:47;;;;;;;1.52;0.52;;;;;;;18.48;58.10;99781.22;4883393;28;127374;-75
2021/05/10 01:53:13;;;;;;;0.70;0.40;;;;;;;18.48;58.06;99786.69;4867432;28;104803;-75
2021/05/10 01:55:40;;;;;;;1.23;0.38;;;;;;;18.44;58.25;99788.50;4882252;28;119526;-64
2021/05/10 01:58:06;;;;;;;0.82;0.43;;;;;;;18.42;58.65;99782.56;4884203;28;98713;-75
2021/05/10 02:00:40;;;;;;;0.95;0.38;;;;;;;18.39;58.49;99784.03;4882973;28;97953;-74
2021/05/10 02:03:19;;;;;;;1.17;0.40;;;;;;;18.35;58.79;99788.56;4851541;28;98253;-75
2021/05/10 02:05:47;;;;;;;1.52;0.50;;;;;;;18.32;58.91;99779.13;4884368;28;114281;-64
2021/05/10 02:08:14;;;;;;;1.85;0.35;;;;;;;18.33;58.94;99778.00;4883762;28;98735;-64
2021/05/10 02:10:48;;;;;;;1.20;0.40;;;;;;;18.31;58.89;99774.00;4874815;28;98558;-64
2021/05/10 02:13:27;;;;;;;2.03;0.50;;;;;;;18.29;59.12;99774.34;4884506;28;104518;-64
2021/05/10 02:15:56;;;;;;;1.65;0.38;;;;;;;18.26;59.16;99775.00;4883177;28;98466;-71
2021/05/10 02:18:26;;;;;;;0.70;0.30;;;;;;;18.27;59.32;99775.78;4898744;28;98827;-75
2021/05/10 02:20:52;;;;;;;1.58;0.35;;;;;;;18.24;59.53;99769.09;4882992;28;107872;-64
2021/05/10 02:23:21;;;;;;;1.27;0.50;;;;;;;18.18;59.58;99762.25;4882677;28;98117;-75
2021/05/10 02:25:50;;;;;;;0.90;0.50;;;;;;;18.20;59.63;99759.19;4912485;28;99102;-75
2021/05/10 02:28:18;;;;;;;1.10;0.40;;;;;;;18.15;59.90;99752.78;4898322;28;98032;-64
2021/05/10 02:30:45;;;;;;;0.85;0.50;;;;;;;18.15;59.77;99763.69;4881817;28;98129;-65
2021/05/10 02:33:13;;;;;;;0.80;0.40;;;;;;;18.13;59.87;99762.47;4913171;28;111435;-75
2021/05/10 02:35:39;;;;;;;1.33;0.40;;;;;;;18.12;59.95;99758.16;4883126;28;98420;-64
2021/05/10 02:38:06;;;;;;;1.13;0.30;;;;;;;18.08;60.19;99758.00;4884362;28;98838;-65
2021/05/10 02:40:32;;;;;;;0.82;0.40;;;;;;;18.05;59.90;99755.94;4883455;28;97910;-65
2021/05/10 02:42:58;;;;;;;1.05;0.40;;;;;;;18.01;60.13;99755.03;4866124;28;98067;-75
2021/05/10 02:45:24;;;;;;;1.85;0.50;;;;;;;17.93;60.54;99749.66;4879617;28;127929;-75
2021/05/10 02:47:50;;;;;;;0.80;0.40;;;;;;;17.94;60.43;99754.75;4881713;28;129020;-75
2021/05/10 02:50:19;;;;;;;1.35;0.50;;;;;;;17.95;60.47;99747.38;4880183;28;126360;-75
2021/05/10 02:52:47;;;;;;;1.25;0.57;;;;;;;17.86;60.53;99748.25;4862716;28;97896;-65
2021/05/10 02:55:13;;;;;;;1.77;0.52;;;;;;;17.86;60.59;99753.69;4864438;28;118111;-65
2021/05/10 02:57:39;;;;;;;0.85;0.40;;;;;;;17.84;60.46;99753.25;4882142;28;108479;-65
2021/05/10 03:00:07;;;;;;;1.88;0.40;;;;;;;17.77;60.75;99755.69;4882418;28;126239;-65
2021/05/10 03:02:33;;;;;;;0.90;0.40;;;;;;;17.77;60.73;99752.97;4883657;28;98005;-65
2021/05/10 03:04:59;;;;;;;1.52;0.50;;;;;;;17.76;60.99;99756.00;4881702;28;128440;-75
2021/05/10 03:07:25;;;;;;;1.10;0.40;;;;;;;17.74;61.00;99758.25;4882143;28;127968;-65
2021/05/10 03:09:51;;;;;;;1.27;0.50;;;;;;;17.73;60.96;99770.28;4883318;28;127230;-75
2021/05/10 03:12:17;;;;;;;1.95;0.55;;;;;;;17.65;61.01;99764.56;4882902;28;123591;-75
2021/05/10 03:14:43;;;;;;;1.70;0.40;;;;;;;17.67;61.13;99758.78;4883151;28;110869;-75
2021/05/10 03:17:09;;;;;;;1.02;0.50;;;;;;;17.65;60.94;99761.84;4896734;28;128095;-65
2021/05/10 03:19:35;;;;;;;1.02;0.55;;;;;;;17.60;60.80;99772.13;4882918;28;128471;-74
2021/05/10 03:22:01;;;;;;;1.63;0.60;;;;;;;17.59;61.07;99768.59;4881980;28;121535;-65
2021/05/10 03:24:28;;;;;;;0.80;0.50;;;;;;;17.56;61.01;99773.91;4883882;28;98474;-65
2021/05/10 03:26:54;;;;;;;1.42;0.50;;;;;;;17.56;61.11;99771.19;4896535;28;121549;-75
2021/05/10 03:29:20;;;;;;;1.35;0.65;;;;;;;17.49;61.06;99771.72;4881857;28;126140;-64
2021/05/10 03:31:46;;;;;;;1.30;0.60;;;;;;;17.48;61.14;99774.78;4883186;28;97765;-75
2021/05/10 03:34:12;;;;;;;1.83;0.55;;;;;;;17.50;60.98;99767.88;4881828;28;127945;-75
2021/05/10 03:36:38;;;;;;;1.05;0.47;;;;;;;17.50;61.00;99765.16;4882278;28;118421;-64
2021/05/10 03:39:04;;;;;;;1.60;0.60;;;;;;;17.47;61.23;99760.34;4883092;28;97957;-64
2021/05/10 03:41:30;;;;;;;0.90;0.60;;;;;;;17.42;61.26;99764.06;4882391;28;97931;-74
2021/05/10 03:43:57;;;;;;;1.20;0.68;;;;;;;17.48;61.02;99764.66;4882737;28;98426;-74
2021/05/10 03:46:24;;;;;;;1.42;0.70;;;;;;;17.58;60.75;99771.66;4882470;28;98184;-64
2021/05/10 03:48:50;;;;;;;1.55;0.65;;;;;;;17.62;60.52;99770.69;4882871;28;98250;-64
2021/05/10 03:51:17;;;;;;;2.85;0.60;;;;;;;17.67;60.31;99769.69;4882594;28;97961;-64
2021/05/10 03:53:43;;;;;;;1.42;0.50;;;;;;;17.69;60.25;99770.16;4883603;28;98070;-74
2021/05/10 03:56:12;;;;;;;1.42;0.50;;;;;;;17.71;60.23;99767.09;4896067;28;128130;-64
2021/05/10 03:58:41;;;;;;;1.23;0.57;;;;;;;17.71;59.96;99765.16;4882474;28;98214;-64
2021/05/10 04:01:09;;;;;;;1.65;0.70;;;;;;;17.74;60.06;99756.31;4879553;28;124293;-64
2021/05/10 04:06:40;;;;;;;1.37;0.60;;;;;;;17.72;60.02;99776.84;4897683;28;98279;-64
2021/05/10 04:14:24;;;;;;;1.13;0.60;;;;;;;17.63;60.58;99779.66;4879889;28;97965;-73
2021/05/10 04:16:50;;;;;;;1.48;0.82;;;;;;;17.63;60.65;99772.25;4896266;28;98476;-64
2021/05/10 04:19:16;;;;;;;1.77;0.90;;;;;;;17.60;60.62;99772.91;4879906;28;113013;-64
2021/05/10 04:21:44;;;;;;;2.35;0.70;;;;;;;17.61;60.69;99762.84;4860326;28;104408;-64
2021/05/10 04:24:10;;;;;;;2.05;0.80;;;;;;;17.63;60.66;99771.47;4875838;28;98761;-74
2021/05/10 04:26:36;;;;;;;1.77;0.85;;;;;;;17.62;60.60;99773.41;4881789;28;98213;-74
2021/05/10 04:29:02;;;;;;;1.67;1.13;;;;;;;17.64;61.09;99778.50;4881295;28;126660;-65
2021/05/10 04:31:31;;;;;;;1.88;1.08;;;;;;;17.60;61.08;99775.66;4880645;28;97919;-74
2021/05/10 04:33:57;;;;;;;1.77;1.10;;;;;;;17.54;61.19;99776.19;4881713;28;98230;-64
2021/05/10 04:36:23;;;;;;;1.40;0.98;;;;;;;17.59;61.14;99782.22;4879641;28;98441;-75
2021/05/10 04:38:49;;;;;;;1.75;1.05;;;;;;;17.55;61.46;99770.41;4877859;28;127618;-75
2021/05/10 04:41:15;;;;;;;2.38;1.25;;;;;;;17.56;61.44;99769.25;4876355;28;102432;-65
2021/05/10 04:43:41;;;;;;;1.63;1.10;;;;;;;17.61;61.39;99769.09;4875484;28;127202;-75
2021/05/10 04:46:07;;;;;;;3.95;1.10;;;;;;;17.60;61.55;99783.81;4877343;28;123517;-75
2021/05/10 04:48:33;;;;;;;3.33;0.93;;;;;;;17.66;61.62;99781.72;4877846;28;125574;-75
2021/05/10 04:51:00;;;;;;;1.25;0.82;;;;;;;17.70;61.69;99774.47;4877021;28;124400;-74
2021/05/10 04:53:26;;;;;;;2.33;1.17;;;;;;;17.75;61.65;99774.28;4878823;28;98210;-75
2021/05/10 04:55:52;;;;;;;2.42;1.23;;;;;;;17.86;61.68;99774.72;4878696;28;98603;-65
2021/05/10 04:58:18;;;;;;;2.22;1.02;;;;;;;17.98;61.37;99782.16;4878730;28;104129;-75
2021/05/10 05:00:44;;;;;;;2.25;0.85;;;;;;;18.03;61.38;99790.91;4877869;28;123586;-65
2021/05/10 05:03:10;;;;;;;1.83;1.02;;;;;;;18.15;61.08;99788.25;4892984;28;100933;-65
2021/05/10 05:05:36;;;;;;;2.45;1.10;;;;;;;18.29;60.93;99790.72;4877570;28;127720;-75
2021/05/10 05:08:02;;;;;;;1.70;1.00;;;;;;;18.44;60.70;99786.56;4877420;28;123833;-75
2021/05/10 05:10:28;;;;;;;1.50;1.05;;;;;;;18.53;60.44;99790.00;4878174;28;105520;-65
2021/05/10 05:12:54;;;;;;;1.33;0.98;;;;;;;18.78;59.96;99787.34;4878498;28;99102;-75
2021/05/10 05:15:21;;;;;;;1.70;0.70;;;;;;;18.93;59.78;99799.56;4877250;28;127911;-66
2021/05/10 05:17:47;;;;;;;2.22;0.90;;;;;;;19.11;59.38;99796.28;4861148;28;98310;-75
2021/05/10 05:20:14;;;;;;;1.42;1.00;;;;;;;19.29;58.84;99796.84;4891893;28;119244;-75
2021/05/10 05:22:40;;;;;;;1.83;0.88;;;;;;;19.43;58.78;99801.19;4891727;28;102245;-75
2021/05/10 05:25:07;;;;;;;1.33;0.73;;;;;;;19.61;58.56;99792.44;4877639;28;126121;-75
2021/05/10 05:27:33;;;;;;;1.77;0.75;;;;;;;19.79;58.26;99792.97;4878316;28;98533;-75
2021/05/10 05:29:59;;;;;;;1.52;0.80;;;;;;;19.98;57.72;99800.56;4878473;28;100733;-67
2021/05/10 05:32:25;;;;;;;2.55;0.82;;;;;;;20.22;56.95;99798.88;4877045;28;126286;-75
2021/05/10 05:34:52;;;;;;;2.70;0.85;;;;;;;20.41;56.55;99790.81;4879182;28;98605;-67
2021/05/10 05:37:18;;;;;;;1.63;0.80;;;;;;;20.63;55.60;99792.19;4859718;28;99272;-68
2021/05/10 05:39:44;;;;;;;2.00;0.70;;;;;;;20.83;54.48;99793.94;4878035;28;114070;-67
2021/05/10 05:42:10;;;;;;;1.35;0.85;;;;;;;21.01;55.59;99810.81;4877813;28;98013;-76
2021/05/10 05:44:38;;;;;;;1.52;0.82;;;;;;;21.23;54.98;99817.63;4878218;28;98859;-75
2021/05/10 05:47:07;;;;;;;1.40;0.70;;;;;;;21.53;53.69;99804.25;4878663;28;98149;-68
2021/05/10 05:49:35;;;;;;;2.38;0.95;;;;;;;21.87;53.66;99799.13;4876431;28;98649;-68
2021/05/10 05:52:05;;;;;;;1.73;0.90;;;;;;;22.18;52.58;99797.44;4878525;28;98136;-76
2021/05/10 05:54:32;;;;;;;1.60;0.68;;;;;;;22.52;51.90;99801.28;4875152;28;119498;-76
2021/05/10 05:56:58;;;;;;;2.42;0.82;;;;;;;23.03;49.69;99807.31;4875932;28;99128;-76
2021/05/10 05:59:24;;;;;;;1.30;0.70;;;;;;;23.37;50.04;99803.91;4877008;28;122595;-76
2021/05/10 06:01:50;;;;;;;1.90;0.77;;;;;;;23.82;47.96;99813.25;4877372;28;98652;-69
2021/05/10 06:04:16;;;;;;;2.17;0.73;;;;;;;24.14;47.65;99802.66;4877066;28;127178;-76
2021/05/10 06:06:42;;;;;;;1.42;0.60;;;;;;;24.65;46.72;99813.09;4879818;28;98011;-76
2021/05/10 06:09:10;;;;;;;1.55;0.60;;;;;;;25.12;45.73;99812.41;4880339;28;121479;-70
2021/05/10 06:11:37;;;;;;;1.00;0.52;;;;;;;25.74;43.68;99814.41;4862902;28;98207;-70
2021/05/10 06:14:03;;;;;;;1.48;0.60;;;;;;;26.33;42.82;99823.41;4881291;28;98526;-76
2021/05/10 06:16:30;;;;;;;1.00;0.40;;;;;;;27.08;41.20;99820.03;4879965;28;109950;-77
2021/05/10 06:18:57;;;;;;;2.30;0.60;;;;;;;27.89;38.85;99818.38;4862822;28;101478;-76
2021/05/10 06:21:23;;;;;;;1.52;0.50;;;;;;;28.48;38.16;99831.63;4880693;28;99019;-77
2021/05/10 06:23:49;;;;;;;2.33;0.57;;;;;;;28.79;38.79;99840.97;4880625;28;99123;-71
2021/05/10 06:26:16;;;;;;;1.48;0.60;;;;;;;27.76;32.34;99833.84;4878151;28;98232;-70
2021/05/10 06:28:42;;;;;;;2.42;0.70;;;;;;;27.28;29.68;99826.78;4878806;28;107736;-75
2021/05/10 06:31:10;;;;;;;2.15;0.70;;;;;;;27.17;28.72;99831.50;4879973;28;98684;-70
2021/05/10 06:33:36;;;;;;;2.45;0.70;;;;;;;27.17;28.10;99829.53;4880789;28;98601;-76
2021/05/10 06:36:03;;;;;;;1.35;0.70;;;;;;;26.63;27.02;99828.63;4880110;28;97956;-75
2021/05/10 06:38:29;;;;;;;1.73;0.70;;;;;;;26.81;26.35;99823.16;4878733;28;110659;-75
2021/05/10 06:40:55;;;;;;;2.15;0.70;;;;;;;26.49;27.85;99823.09;4878390;28;98289;-69
2021/05/10 06:43:21;;;;;;;1.38;0.57;;;;;;;26.31;27.49;99823.00;4877969;28;128009;-75
2021/05/10 06:45:47;;;;;;;1.73;0.70;;;;;;;26.39;27.55;99821.03;4879321;28;127453;-69
2021/05/10 06:48:26;;;;;;;1.70;0.50;;;;;;;26.54;27.61;99819.16;4879142;28;120859;-70
2021/05/10 06:50:52;;;;;;;1.55;0.47;;;;;;;26.57;27.14;99821.94;4880464;28;98318;-69
2021/05/10 06:53:18;;;;;;;2.13;0.70;;;;;;;27.13;27.03;99819.66;4880081;28;98949;-75
2021/05/10 06:55:44;;;;;;;1.60;0.60;;;;;;;27.43;26.71;99805.41;4879013;28;117763;-75
2021/05/10 06:58:10;;;;;;;1.88;0.70;;;;;;;27.64;26.59;99805.38;4877499;28;122903;-69
2021/05/10 07:00:38;;;;;;;3.53;0.50;;;;;;;27.53;26.43;99803.81;4862479;28;99952;-69
2021/05/10 07:03:04;;;;;;;1.55;0.70;;;;;;;28.10;25.95;99803.69;4880290;28;97964;-75
2021/05/10 07:05:30;;;;;;;1.70;0.50;;;;;;;28.47;25.72;99807.91;4878284;28;101993;-75
2021/05/10 07:07:56;;;;;;;1.73;0.60;;;;;;;28.80;25.28;99804.50;4879051;28;121951;-74
2021/05/10 07:10:22;;;;;;;1.85;0.82;;;;;;;28.96;25.11;99806.75;4880342;28;128758;-75
2021/05/10 07:12:48;;;;;;;4.63;0.60;;;;;;;29.23;24.43;99806.19;4878398;28;124576;-69
2021/05/10 07:15:14;;;;;;;3.42;0.50;;;;;;;29.91;23.86;99803.56;4878437;28;127829;-75
2021/05/10 07:17:40;;;;;;;1.08;0.57;;;;;;;29.87;23.95;99800.03;4878224;28;97966;-69
2021/05/10 07:20:07;;;;;;;1.67;0.70;;;;;;;29.91;23.83;99802.75;4861192;28;108987;-69
2021/05/10 07:22:33;;;;;;;2.25;0.60;;;;;;;30.48;23.09;99794.50;4879289;28;109598;-75
2021/05/10 07:24:59;;;;;;;2.60;0.50;;;;;;;30.32;23.31;99789.56;4876427;28;128008;-69
2021/05/10 07:27:25;;;;;;;1.05;0.50;;;;;;;30.14;23.20;99794.53;4892770;28;121858;-69
2021/05/10 07:29:51;;;;;;;1.20;0.50;;;;;;;29.31;24.36;99788.28;4876807;28;127910;-75
2021/05/10 07:32:17;;;;;;;2.58;0.45;;;;;;;29.20;24.55;99798.69;4877141;28;114062;-75
2021/05/10 07:34:43;;;;;;;3.40;0.50;;;;;;;29.05;24.47;99798.03;4860790;28;127360;-68
2021/05/10 07:37:09;;;;;;;7.85;0.60;;;;;;;30.03;24.68;99803.00;4892575;28;123017;-69
2021/05/10 07:39:35;;;;;;;2.47;0.60;;;;;;;30.04;23.98;99799.03;4877636;28;128102;-69
2021/05/10 07:42:01;;;;;;;3.15;0.57;;;;;;;30.16;23.91;99806.06;4878481;28;128075;-69
2021/05/10 07:44:30;;;;;;;2.10;0.55;;;;;;;30.51;23.30;99793.66;4880360;28;98273;-74
2021/05/10 07:46:56;;;;;;;1.23;0.60;;;;;;;31.13;23.01;99807.47;4893297;28;98276;-75
2021/05/10 07:49:22;;;;;;;2.00;0.70;;;;;;;31.03;23.46;99801.63;4869919;28;98984;-69
2021/05/10 07:51:48;;;;;;;1.85;0.50;;;;;;;30.39;23.68;99799.81;4877767;28;109294;-74
2021/05/10 07:54:14;;;;;;;3.85;0.77;;;;;;;30.99;23.45;99800.13;4878093;28;127669;-74
2021/05/10 07:56:40;;;;;;;1.58;0.55;;;;;;;31.33;23.65;99799.97;4892631;28;121169;-69
2021/05/10 07:59:10;;;;;;;1.88;0.55;;;;;;;31.85;22.81;99810.56;4877667;28;126870;-69
2021/05/10 08:01:36;;;;;;;3.85;0.70;;;;;;;31.81;22.19;99803.47;4878481;28;98252;-74
2021/05/10 08:04:03;;;;;;;2.22;0.68;;;;;;;31.75;22.51;99798.41;4878506;28;98329;-69
2021/05/10 08:06:32;;;;;;;2.05;0.60;;;;;;;32.53;21.43;99800.81;4879522;28;97903;-70
2021/05/10 08:08:58;;;;;;;2.92;0.88;;;;;;;33.27;20.39;99783.50;4876387;28;114930;-74
2021/05/10 08:11:25;;;;;;;2.90;0.73;;;;;;;34.14;19.46;99789.09;4878935;28;100005;-70
2021/05/10 08:13:51;;;;;;;2.92;0.60;;;;;;;35.32;18.83;99781.78;4876868;28;98125;-75
2021/05/10 08:16:17;;;;;;;2.15;0.60;;;;;;;34.85;18.79;99785.34;4860982;28;106652;-69
2021/05/10 08:18:43;;;;;;;2.25;0.80;;;;;;;36.01;17.73;99778.19;4878059;28;127031;-75
2021/05/10 08:21:09;;;;;;;3.40;0.90;;;;;;;36.29;17.82;99774.28;4891454;28;126197;-75
2021/05/10 08:23:36;;;;;;;2.63;0.73;;;;;;;36.60;17.41;99779.88;4872960;28;126947;-75
2021/05/10 08:26:02;;;;;;;1.88;0.80;;;;;;;37.04;17.09;99782.50;4876792;28;103098;-70
2021/05/10 08:28:28;;;;;;;3.90;0.70;;;;;;;36.80;16.91;99782.28;4877662;28;127812;-76
2021/05/10 08:30:55;;;;;;;2.60;0.70;;;;;;;36.77;16.04;99774.78;4878998;28;97848;-75
2021/05/10 08:33:21;;;;;;;1.48;0.50;;;;;;;37.32;16.67;99760.06;4875800;28;104868;-71
2021/05/10 08:35:47;;;;;;;3.83;0.65;;;;;;;36.78;16.47;99765.09;4876239;28;123397;-71
2021/05/10 08:38:13;;;;;;;4.32;0.80;;;;;;;36.97;16.66;99757.53;4876726;28;99418;-77
2021/05/10 08:40:39;;;;;;;3.70;0.65;;;;;;;38.13;16.27;99765.34;4876999;28;126880;-71
2021/05/10 08:43:23;;;;;;;2.95;0.65;;;;;;;38.31;15.58;99773.69;4877142;28;98237;-75
2021/05/10 08:45:55;;;;;;;2.00;0.65;;;;;;;38.57;15.17;99764.88;4862106;28;98365;-75
2021/05/10 08:48:22;;;;;;;1.65;0.63;;;;;;;38.25;15.71;99767.16;4891766;28;99183;-71
2021/05/10 08:50:48;;;;;;;3.30;0.50;;;;;;;37.59;16.24;99768.53;4877605;28;112682;-71
2021/05/10 08:53:14;;;;;;;2.05;0.68;;;;;;;38.79;15.29;99779.44;4878023;28;98373;-75
2021/05/10 08:55:40;;;;;;;2.80;0.90;;;;;;;38.91;15.13;99772.03;4876802;28;124439;-75
2021/05/10 08:58:08;;;;;;;2.42;0.68;;;;;;;39.17;15.10;99778.75;4874864;28;98414;-72
2021/05/10 09:00:52;;;;;;;1.90;0.65;;;;;;;39.82;14.55;99775.44;4878060;28;98460;-75
2021/05/10 09:03:18;;;;;;;3.22;0.70;;;;;;;39.90;14.49;99777.38;4858972;28;99743;-75
2021/05/10 09:05:46;;;;;;;2.42;0.77;;;;;;;40.27;14.65;99776.22;4876484;28;97799;-75
2021/05/10 09:08:12;;;;;;;2.28;0.60;;;;;;;40.27;14.31;99779.03;4877947;28;98444;-75
2021/05/10 09:10:38;;;;;;;3.20;0.80;;;;;;;39.90;15.03;99780.19;4878831;28;98625;-72
2021/05/10 09:13:04;;;;;;;2.17;0.70;;;;;;;39.24;15.52;99769.19;4877381;28;128540;-71
2021/05/10 09:15:35;;;;;;;2.58;0.70;;;;;;;38.93;15.75;99761.09;4878366;28;98217;-75
2021/05/10 09:18:08;;;;;;;1.55;0.50;;;;;;;38.89;15.89;99743.59;4878295;28;98932;-74
2021/05/10 09:20:40;;;;;;;1.75;0.60;;;;;;;38.49;15.79;99742.69;4876851;28;99959;-71
2021/05/10 09:23:12;;;;;;;2.75;0.60;;;;;;;38.98;16.30;99758.38;4878851;28;98352;-71
2021/05/10 09:25:45;;;;;;;1.60;0.68;;;;;;;39.30;15.54;99761.59;4877836;28;97930;-71
2021/05/10 09:28:18;;;;;;;1.95;0.70;;;;;;;39.21;15.71;99768.06;4877254;28;99265;-71
2021/05/10 09:30:54;;;;;;;2.67;0.70;;;;;;;40.58;14.19;99761.56;4877773;28;99026;-71
2021/05/10 09:33:27;;;;;;;2.03;0.63;;;;;;;41.50;13.71;99757.38;4878274;28;98591;-71
2021/05/10 09:36:06;;;;;;;2.47;0.73;;;;;;;41.99;13.71;99753.50;4878668;28;97917;-71
2021/05/10 09:38:37;;;;;;;2.37;0.70;;;;;;;41.79;13.46;99768.47;4845118;28;100703;-70
2021/05/10 09:41:05;;;;;;;2.75;0.80;;;;;;;42.09;13.29;99762.56;4878391;28;99527;-75
2021/05/10 09:43:38;;;;;;;1.90;0.73;;;;;;;41.62;13.62;99757.00;4881542;28;112170;-73
2021/05/10 09:46:12;;;;;;;4.05;0.77;;;;;;;42.31;13.31;99756.34;4880945;28;98091;-71
2021/05/10 09:48:39;;;;;;;2.80;0.70;;;;;;;42.01;13.47;99767.91;4880312;28;98510;-74
2021/05/10 09:51:10;;;;;;;4.60;2.95;;;;;;;42.11;13.09;99763.63;4862681;28;98451;-74
2021/05/10 09:53:53;;;;;;;7.07;6.15;;;;;;;42.85;12.75;99759.28;4881618;28;98169;-71
2021/05/10 09:56:32;;;;;;;6.20;1.77;;;;;;;43.12;13.31;99755.03;4880982;28;98109;-71
2021/05/10 09:59:07;;;;;;;3.25;1.00;;;;;;;42.55;12.78;99733.31;4880495;28;99004;-74
2021/05/10 10:01:40;;;;;;;1.70;0.80;;;;;;;43.48;12.55;99733.50;4874912;28;98375;-71
2021/05/10 10:04:06;;;;;;;2.90;0.68;;;;;;;43.11;12.31;99739.28;4880542;28;98005;-74
2021/05/10 10:06:32;;;;;;;1.60;0.63;;;;;;;43.61;12.03;99735.84;4877567;28;124011;-71
2021/05/10 10:08:58;;;;;;;1.20;0.60;;;;;;;44.09;12.30;99735.59;4878449;28;125793;-71
2021/05/10 10:11:26;;;;;;;2.47;0.50;;;;;;;43.78;12.01;99736.63;4893417;28;125980;-75
2021/05/10 10:13:55;;;;;;;2.33;0.70;;;;;;;43.40;12.18;99740.16;4878128;28;115652;-71
2021/05/10 10:16:25;;;;;;;4.53;0.77;;;;;;;43.81;12.31;99738.44;4879857;28;98081;-71
2021/05/10 10:18:52;;;;;;;1.90;0.60;;;;;;;44.01;12.45;99736.66;4893973;28;114725;-75
2021/05/10 10:21:19;;;;;;;1.50;0.57;;;;;;;43.95;12.14;99731.00;4880701;28;98578;-71
2021/05/10 10:23:53;;;;;;;2.22;0.60;;;;;;;43.73;12.84;99737.38;4879779;28;98635;-74
2021/05/10 10:26:19;;;;;;;2.45;0.65;;;;;;;43.76;12.72;99729.94;4879754;28;98225;-71
2021/05/10 10:28:48;;;;;;;1.92;0.70;;;;;;;43.77;12.32;99720.13;4880398;28;122161;-76
2021/05/10 10:31:25;;;;;;;2.47;0.50;;;;;;;44.09;12.26;99709.28;4876501;28;128107;-75
2021/05/10 10:34:10;;;;;;;1.77;0.52;;;;;;;44.41;11.91;99714.69;4878539;28;107465;-75
2021/05/10 10:36:58;;;;;;;2.50;0.60;;;;;;;44.30;12.06;99713.44;4859835;28;98149;-75
2021/05/10 10:39:27;;;;;;;2.20;0.80;;;;;;;44.20;12.01;99706.44;4878790;28;98163;-74
2021/05/10 10:42:11;;;;;;;1.13;0.63;;;;;;;44.75;11.86;99707.63;4869976;28;98663;-75
2021/05/10 10:44:46;;;;;;;2.28;0.70;;;;;;;44.93;12.44;99711.97;4878661;28;98649;-70
2021/05/10 10:47:17;;;;;;;1.38;0.63;;;;;;;44.69;12.19;99703.25;4877238;28;98089;-70
2021/05/10 10:49:44;;;;;;;1.42;0.40;;;;;;;44.44;12.19;99699.44;4871687;28;99138;-74
2021/05/10 10:52:28;;;;;;;2.80;0.63;;;;;;;44.54;11.98;99698.66;4875391;28;107936;-74
2021/05/10 10:55:41;;;;;;;1.58;0.57;;;;;;;45.54;11.70;99693.78;4854528;28;98170;-74
2021/05/10 10:58:21;;;;;;;1.88;0.70;;;;;;;44.57;11.83;99691.16;4877674;28;98882;-70
2021/05/10 11:00:56;;;;;;;1.73;0.50;;;;;;;43.58;12.39;99685.81;4876238;28;98370;-74
2021/05/10 11:03:23;;;;;;;2.83;0.70;;;;;;;44.11;12.51;99681.19;4872138;28;98630;-74
2021/05/10 11:05:49;;;;;;;1.63;0.40;;;;;;;43.77;12.59;99677.56;4875420;28;106579;-74
2021/05/10 11:08:15;;;;;;;1.80;0.50;;;;;;;42.50;13.66;99666.13;4858569;28;123418;-70
2021/05/10 11:10:59;;;;;;;2.42;0.57;;;;;;;42.59;13.43;99663.09;4875997;28;126279;-74
2021/05/10 11:15:57;;;;;;;2.67;0.70;;;;;;;41.90;14.30;99658.28;4874598;28;97985;-74
2021/05/10 11:18:47;;;;;;;2.17;0.50;;;;;;;41.44;14.23;99655.56;4877408;28;103525;-70
2021/05/10 11:21:26;;;;;;;4.45;1.05;;;;;;;41.62;14.52;99652.41;4877388;28;98080;-74
2021/05/10 11:23:59;;;;;;;2.10;0.60;;;;;;;41.61;14.43;99659.31;4874206;28;97859;-74
2021/05/10 11:26:50;;;;;;;3.58;0.63;;;;;;;41.93;14.25;99650.84;4870083;28;98277;-74
2021/05/10 11:29:26;;;;;;;2.33;0.60;;;;;;;42.00;14.75;99655.25;4875685;28;97844;-76
2021/05/10 11:31:59;;;;;;;2.53;0.80;;;;;;;41.91;14.70;99653.41;4873668;28;99579;-70
2021/05/10 11:34:25;;;;;;;2.13;0.60;;;;;;;41.37;14.42;99655.97;4880398;28;102073;-70
2021/05/10 11:36:55;;;;;;;2.75;0.70;;;;;;;41.59;14.37;99647.75;4875007;28;98099;-70
2021/05/10 11:39:25;;;;;;;3.30;0.53;;;;;;;41.57;14.84;99652.34;4874912;28;98178;-75
2021/05/10 11:41:56;;;;;;;;;;;;;;;41.94;13.88;99649.59;4891195;28;98325;-69
2021/05/10 11:44:24;;;;;;;1.73;0.65;;;;;;;41.85;14.23;99655.41;4880204;28;98692;-69